Time;durP1;ratioP1;P1;durP2;ratioP2;P2;SDS_P1;SDS_P2;PMS_P1;PMS_P2;Temp;Humidity;BMP_temperature;BMP_pressure;BME280_temperature;BME280_humidity;BME280_pressure;Samples;Min_cycle;Max_cycle;Signal;HPM_P1;HPM_P2
2023/09/11 00:00:22;;;;;;;8.77;8.07;;;24.60;69.50;;;;;;5055801;28;20211;-58
2023/09/11 00:02:48;;;;;;;9.00;8.20;;;24.60;70.40;;;;;;5060247;28;20183;-58
2023/09/11 00:05:13;;;;;;;9.00;8.30;;;24.60;69.50;;;;;;5071874;28;20637;-58
2023/09/11 00:07:39;;;;;;;8.95;8.15;;;24.60;69.50;;;;;;5055780;28;20234;-58
2023/09/11 00:10:05;;;;;;;9.18;8.38;;;24.60;69.50;;;;;;5059888;28;20604;-57
2023/09/11 00:12:30;;;;;;;8.80;8.10;;;24.60;69.50;;;;;;5068582;28;20175;-57
2023/09/11 00:14:56;;;;;;;8.95;8.15;;;24.60;69.50;;;;;;5056034;28;20179;-57
2023/09/11 00:17:21;;;;;;;8.70;8.05;;;24.60;69.50;;;;;;5055488;28;20643;-56
2023/09/11 00:19:47;;;;;;;9.07;8.45;;;24.50;69.40;;;;;;5055105;28;20531;-58
2023/09/11 00:22:12;;;;;;;9.77;8.98;;;24.60;69.50;;;;;;5055322;28;20579;-58
2023/09/11 00:24:38;;;;;;;8.93;7.97;;;24.60;70.40;;;;;;5055898;28;20179;-58
2023/09/11 00:27:04;;;;;;;8.38;7.78;;;24.60;69.40;;;;;;5054864;28;20179;-57
2023/09/11 00:29:29;;;;;;;8.70;7.90;;;24.50;69.40;;;;;;5055353;28;20561;-59
2023/09/11 00:31:55;;;;;;;8.45;7.68;;;24.50;69.40;;;;;;5055729;28;20306;-56
2023/09/11 00:34:20;;;;;;;8.90;8.13;;;24.50;69.40;;;;;;5054581;28;20175;-57
2023/09/11 00:36:46;;;;;;;8.73;8.02;;;24.50;69.40;;;;;;5055421;28;20304;-57
2023/09/11 00:39:11;;;;;;;8.85;8.13;;;24.50;69.40;;;;;;5054970;28;20299;-58
2023/09/11 00:41:37;;;;;;;8.43;7.82;;;24.50;69.40;;;;;;5054579;28;20175;-58
2023/09/11 00:44:03;;;;;;;8.70;7.95;;;24.50;69.40;;;;;;5055310;28;20171;-58
2023/09/11 00:46:30;;;;;;;8.73;8.02;;;24.50;69.40;;;;;;5054039;28;20179;-58
2023/09/11 00:48:55;;;;;;;8.77;8.00;;;24.50;69.40;;;;;;5053704;28;20171;-57
2023/09/11 00:51:21;;;;;;;8.43;7.72;;;24.50;69.40;;;;;;5054813;28;20179;-58
2023/09/11 00:53:47;;;;;;;8.85;8.05;;;24.50;69.30;;;;;;5054304;28;20172;-56
2023/09/11 00:56:12;;;;;;;8.75;8.05;;;24.50;69.30;;;;;;5053820;28;20185;-57
2023/09/11 00:58:38;;;;;;;9.00;8.20;;;24.50;69.40;;;;;;5053753;28;20217;-54
2023/09/11 01:01:04;;;;;;;8.55;7.68;;;24.50;69.30;;;;;;5053963;28;20229;-57
2023/09/11 01:03:30;;;;;;;9.23;8.43;;;24.50;69.30;;;;;;5054835;28;20182;-58
2023/09/11 01:05:55;;;;;;;8.55;7.85;;;24.50;69.30;;;;;;5054848;28;20221;-58
2023/09/11 01:08:21;;;;;;;8.57;7.85;;;24.50;70.10;;;;;;5053995;28;20179;-58
2023/09/11 01:10:47;;;;;;;8.93;8.13;;;24.50;69.30;;;;;;5055238;28;20228;-58
2023/09/11 01:13:12;;;;;;;8.45;7.75;;;24.50;69.30;;;;;;5054574;28;20175;-57
2023/09/11 01:15:42;;;;;;;9.15;8.35;;;24.50;69.30;;;;;;5052894;28;20626;-57
2023/09/11 01:18:22;;;;;;;9.23;8.35;;;24.50;69.30;;;;;;5053231;28;20242;-57
2023/09/11 01:21:20;;;;;;;8.98;8.07;;;24.50;69.30;;;;;;5053715;28;20179;-58
2023/09/11 01:24:24;;;;;;;8.55;7.85;;;24.50;69.30;;;;;;5052893;28;20573;-58
2023/09/11 01:27:33;;;;;;;9.07;8.18;;;24.50;69.30;;;;;;5054432;28;20182;-56
2023/09/11 01:29:59;;;;;;;9.48;8.65;;;24.50;69.30;;;;;;5031529;28;20226;-55
2023/09/11 01:32:25;;;;;;;8.88;8.02;;;24.50;69.20;;;;;;5047058;28;20183;-56
2023/09/11 01:34:51;;;;;;;9.07;8.32;;;24.50;69.20;;;;;;5053563;28;20199;-56
2023/09/11 01:37:17;;;;;;;8.10;7.40;;;24.50;70.10;;;;;;5053436;28;20218;-61
2023/09/11 01:39:42;;;;;;;9.05;8.30;;;24.50;69.20;;;;;;5054414;28;20711;-58
2023/09/11 01:42:10;;;;;;;9.40;8.60;;;24.50;69.20;;;;;;5053032;28;20175;-58
2023/09/11 01:44:46;;;;;;;8.43;7.63;;;24.50;69.20;;;;;;5052335;28;20240;-58
2023/09/11 01:47:14;;;;;;;8.57;7.78;;;24.50;69.30;;;;;;5052816;28;20183;-58
2023/09/11 01:49:40;;;;;;;8.52;7.93;;;24.50;69.20;;;;;;5052881;28;20183;-58
2023/09/11 01:52:09;;;;;;;8.90;8.20;;;24.50;69.20;;;;;;5051893;28;20171;-57
2023/09/11 01:54:34;;;;;;;8.93;8.20;;;24.50;69.20;;;;;;5052853;28;20190;-55
2023/09/11 01:57:00;;;;;;;8.63;8.00;;;24.50;69.20;;;;;;5051412;28;20179;-55
2023/09/11 01:59:26;;;;;;;9.38;8.48;;;24.50;69.20;;;;;;5052300;28;20241;-57
2023/09/11 02:01:51;;;;;;;8.60;7.90;;;24.50;69.10;;;;;;5053911;28;20258;-57
2023/09/11 02:04:17;;;;;;;8.65;8.00;;;24.50;69.20;;;;;;5052747;28;20175;-58
2023/09/11 02:06:43;;;;;;;8.15;7.45;;;24.50;69.20;;;;;;5053677;28;20171;-58
2023/09/11 02:09:08;;;;;;;8.60;7.90;;;24.40;69.10;;;;;;5053652;28;20213;-58
2023/09/11 02:11:34;;;;;;;8.32;7.63;;;24.50;69.20;;;;;;5052805;28;20171;-58
2023/09/11 02:13:59;;;;;;;9.07;8.38;;;24.50;69.10;;;;;;5053514;28;20175;-57
2023/09/11 02:16:25;;;;;;;8.43;7.80;;;24.40;69.10;;;;;;5053462;28;20167;-57
2023/09/11 02:18:50;;;;;;;9.32;8.52;;;24.40;69.10;;;;;;5052735;28;20684;-57
2023/09/11 02:21:16;;;;;;;8.60;7.70;;;24.50;69.10;;;;;;5053373;28;20179;-58
2023/09/11 02:23:44;;;;;;;8.85;8.07;;;24.40;69.00;;;;;;5053546;28;20175;-58
2023/09/11 02:26:10;;;;;;;9.10;8.32;;;24.40;69.10;;;;;;5052787;28;20168;-57
2023/09/11 02:28:36;;;;;;;8.45;7.65;;;24.40;69.00;;;;;;5053348;28;20182;-55
2023/09/11 02:31:01;;;;;;;9.10;8.30;;;24.40;69.10;;;;;;5053245;28;20178;-55
2023/09/11 02:33:27;;;;;;;8.80;8.00;;;24.40;69.00;;;;;;5052504;28;20179;-55
2023/09/11 02:36:02;;;;;;;8.60;7.90;;;24.40;69.10;;;;;;5053538;28;20195;-57
2023/09/11 02:38:28;;;;;;;9.13;8.32;;;24.40;69.00;;;;;;5053198;28;20297;-58
2023/09/11 02:40:53;;;;;;;8.90;8.20;;;24.40;69.00;;;;;;5052568;28;20672;-58
2023/09/11 02:43:19;;;;;;;9.43;8.27;;;24.40;69.10;;;;;;5052838;28;20183;-58
2023/09/11 02:45:44;;;;;;;9.48;8.57;;;24.40;69.00;;;;;;5053026;28;20263;-58
2023/09/11 02:48:10;;;;;;;9.32;8.57;;;24.40;69.00;;;;;;5052002;28;20297;-58
2023/09/11 02:50:37;;;;;;;8.10;7.40;;;24.40;69.00;;;;;;5053089;28;20270;-58
2023/09/11 02:53:08;;;;;;;8.93;8.25;;;24.40;69.00;;;;;;5051666;28;20605;-56
2023/09/11 02:55:38;;;;;;;8.82;8.00;;;24.40;69.00;;;;;;5052998;28;20598;-57
2023/09/11 02:58:04;;;;;;;9.70;8.82;;;24.40;69.00;;;;;;5052669;28;20210;-56
2023/09/11 03:00:32;;;;;;;8.82;8.13;;;24.40;69.00;;;;;;5051816;28;20954;-58
2023/09/11 03:02:58;;;;;;;8.65;7.95;;;24.40;69.00;;;;;;5052833;28;20175;-57
2023/09/11 03:05:23;;;;;;;8.20;7.50;;;24.40;68.90;;;;;;5052850;28;20697;-57
2023/09/11 03:07:50;;;;;;;8.80;7.85;;;24.40;69.00;;;;;;5052174;28;20540;-58
2023/09/11 03:10:15;;;;;;;9.40;8.60;;;24.40;69.00;;;;;;5050688;28;20175;-58
2023/09/11 03:12:41;;;;;;;8.65;8.05;;;24.40;69.00;;;;;;5052690;28;20229;-58
2023/09/11 03:15:07;;;;;;;8.88;8.18;;;24.40;68.90;;;;;;5051920;28;20182;-57
2023/09/11 03:17:32;;;;;;;8.80;8.05;;;24.40;69.00;;;;;;5052685;28;20310;-57
2023/09/11 03:19:58;;;;;;;9.40;8.60;;;24.40;69.00;;;;;;5052689;28;20662;-57
2023/09/11 03:22:24;;;;;;;8.25;7.55;;;24.40;69.00;;;;;;5051918;28;20198;-58
2023/09/11 03:24:49;;;;;;;8.77;8.05;;;24.40;69.80;;;;;;5052721;28;20185;-58
2023/09/11 03:27:15;;;;;;;8.60;7.75;;;24.40;69.00;;;;;;5052297;28;20254;-57
2023/09/11 03:29:40;;;;;;;9.15;8.07;;;24.40;68.90;;;;;;5051889;28;20182;-56
2023/09/11 03:32:06;;;;;;;8.75;7.93;;;24.40;68.90;;;;;;5052426;28;20574;-55
2023/09/11 03:34:32;;;;;;;9.20;8.50;;;24.40;68.90;;;;;;5052644;28;20185;-57
2023/09/11 03:36:57;;;;;;;9.18;8.32;;;24.40;68.90;;;;;;5051722;28;20178;-57
2023/09/11 03:39:23;;;;;;;9.40;8.50;;;24.30;68.80;;;;;;5052508;28;20219;-57
2023/09/11 03:41:49;;;;;;;12.82;8.85;;;24.40;68.90;;;;;;5053168;28;20171;-57
2023/09/11 03:44:15;;;;;;;9.07;8.38;;;24.30;68.90;;;;;;5051394;28;20175;-58
2023/09/11 03:46:40;;;;;;;8.63;7.93;;;24.30;68.90;;;;;;5052749;28;20167;-57
2023/09/11 03:49:06;;;;;;;9.00;8.10;;;24.30;68.90;;;;;;5051270;28;20179;-58
2023/09/11 03:51:32;;;;;;;8.68;7.88;;;24.30;68.90;;;;;;5051535;28;20587;-58
2023/09/11 03:53:58;;;;;;;9.18;8.38;;;24.30;68.80;;;;;;5052424;28;20262;-57
2023/09/11 03:56:23;;;;;;;8.60;7.90;;;24.30;68.80;;;;;;5051988;28;20635;-57
2023/09/11 03:58:50;;;;;;;8.45;7.78;;;24.30;68.80;;;;;;5050391;28;20211;-55
2023/09/11 04:01:16;;;;;;;9.38;8.57;;;24.30;68.80;;;;;;5052118;28;20187;-58
2023/09/11 04:03:42;;;;;;;9.25;8.55;;;24.30;68.80;;;;;;5051578;28;20579;-58
2023/09/11 04:06:07;;;;;;;8.52;7.82;;;24.30;68.80;;;;;;5051950;28;20622;-58
2023/09/11 04:08:33;;;;;;;9.00;8.18;;;24.30;68.80;;;;;;5052218;28;20187;-58
2023/09/11 04:10:58;;;;;;;9.45;8.52;;;24.30;69.60;;;;;;5051357;28;20663;-57
2023/09/11 04:13:24;;;;;;;9.07;8.18;;;24.30;68.80;;;;;;5052054;28;20175;-57
2023/09/11 04:15:49;;;;;;;8.68;7.80;;;24.30;68.80;;;;;;5052234;28;20172;-57
2023/09/11 04:18:15;;;;;;;8.60;7.90;;;24.30;69.60;;;;;;5051189;28;20211;-58
2023/09/11 04:20:40;;;;;;;9.63;8.63;;;24.30;68.80;;;;;;5053895;28;20220;-58
2023/09/11 04:23:06;;;;;;;8.68;7.90;;;24.30;69.60;;;;;;5055501;28;20179;-60
2023/09/11 04:25:33;;;;;;;9.15;8.35;;;24.30;69.60;;;;;;5054818;28;20259;-57
2023/09/11 04:27:58;;;;;;;8.75;8.05;;;24.30;68.80;;;;;;5055280;28;20183;-57
2023/09/11 04:30:24;;;;;;;8.57;7.97;;;24.30;68.80;;;;;;5055716;28;20179;-55
2023/09/11 04:32:49;;;;;;;9.45;8.65;;;24.30;69.60;;;;;;5055036;28;20178;-56
2023/09/11 04:35:15;;;;;;;9.30;8.45;;;24.30;68.80;;;;;;5055407;28;20617;-57
2023/09/11 04:37:40;;;;;;;9.55;8.65;;;24.30;68.80;;;;;;5055622;28;20211;-58
2023/09/11 04:40:07;;;;;;;8.70;8.00;;;24.30;68.80;;;;;;5054625;28;20529;-58
2023/09/11 04:42:32;;;;;;;8.90;8.20;;;24.30;68.70;;;;;;5055138;28;20740;-58
2023/09/11 04:44:59;;;;;;;8.50;7.85;;;24.30;68.70;;;;;;5055096;28;20179;-58
2023/09/11 04:47:31;;;;;;;9.90;9.10;;;24.30;68.70;;;;;;5054569;28;20207;-59
2023/09/11 04:49:57;;;;;;;8.93;8.18;;;24.30;68.70;;;;;;5055272;28;20268;-58
2023/09/11 04:52:22;;;;;;;8.82;8.02;;;24.30;68.70;;;;;;5055138;28;20634;-57
2023/09/11 04:54:48;;;;;;;9.70;8.73;;;24.30;68.70;;;;;;5054412;28;20175;-57
2023/09/11 04:57:13;;;;;;;9.57;8.70;;;24.30;68.70;;;;;;5054701;28;20175;-57
2023/09/11 04:59:41;;;;;;;9.95;8.88;;;24.30;68.70;;;;;;5054665;28;20313;-56
2023/09/11 05:02:07;;;;;;;9.18;8.38;;;24.30;69.50;;;;;;5054565;28;20182;-57
2023/09/11 05:04:33;;;;;;;8.77;7.97;;;24.30;68.70;;;;;;5054956;28;20183;-58
2023/09/11 05:06:58;;;;;;;9.05;8.23;;;24.30;69.50;;;;;;5054111;28;20175;-58
2023/09/11 05:09:24;;;;;;;9.15;8.20;;;24.30;68.70;;;;;;5054966;28;20171;-59
2023/09/11 05:11:49;;;;;;;8.85;8.05;;;24.30;68.70;;;;;;5054920;28;20185;-57
2023/09/11 05:14:15;;;;;;;8.85;8.05;;;24.30;69.10;;;;;;5053866;28;20222;-58
2023/09/11 05:16:41;;;;;;;9.93;9.02;;;24.30;68.70;;;;;;5054692;28;20175;-58
2023/09/11 05:19:06;;;;;;;9.05;8.27;;;24.30;68.60;;;;;;5054236;28;20253;-58
2023/09/11 05:21:32;;;;;;;8.85;8.10;;;24.30;69.40;;;;;;5053986;28;20186;-58
2023/09/11 05:23:58;;;;;;;8.93;8.23;;;24.30;68.70;;;;;;5054330;28;20175;-58
2023/09/11 05:26:23;;;;;;;9.95;8.95;;;24.20;68.60;;;;;;5054268;28;20182;-58
2023/09/11 05:28:49;;;;;;;9.13;8.32;;;24.30;68.60;;;;;;5054080;28;20622;-57
2023/09/11 05:31:14;;;;;;;9.20;8.50;;;24.20;68.60;;;;;;5053927;28;20627;-55
2023/09/11 05:33:40;;;;;;;9.00;8.23;;;24.20;68.60;;;;;;5054101;28;20180;-57
2023/09/11 05:36:06;;;;;;;9.80;9.00;;;24.20;68.60;;;;;;5053550;28;20167;-58
2023/09/11 05:38:31;;;;;;;10.02;9.13;;;24.20;68.60;;;;;;5054050;28;20575;-56
2023/09/11 05:40:57;;;;;;;9.20;8.45;;;24.20;68.60;;;;;;5054236;28;20178;-59
2023/09/11 05:43:22;;;;;;;9.63;8.63;;;24.20;68.60;;;;;;5053655;28;20236;-58
2023/09/11 05:45:48;;;;;;;9.32;8.55;;;24.20;68.50;;;;;;5054042;28;20179;-58
2023/09/11 05:48:13;;;;;;;9.73;8.82;;;24.20;68.60;;;;;;5052778;28;20183;-58
2023/09/11 05:50:39;;;;;;;8.93;8.23;;;24.20;68.50;;;;;;5053275;28;20305;-57
2023/09/11 05:53:07;;;;;;;8.77;8.07;;;24.20;68.50;;;;;;5053929;28;20265;-57
2023/09/11 05:55:33;;;;;;;8.98;8.18;;;24.20;68.50;;;;;;5054077;28;20197;-58
2023/09/11 05:57:59;;;;;;;9.20;8.50;;;24.30;68.60;;;;;;5053260;28;20215;-56
2023/09/11 06:00:26;;;;;;;9.55;8.55;;;24.20;68.50;;;;;;5053753;28;20269;-58
2023/09/11 06:02:52;;;;;;;9.93;9.02;;;24.20;68.50;;;;;;5053892;28;20538;-57
2023/09/11 06:05:18;;;;;;;9.65;8.80;;;24.20;68.50;;;;;;5052789;28;20186;-59
2023/09/11 06:07:43;;;;;;;9.27;8.48;;;24.20;68.60;;;;;;5053649;28;20175;-59
2023/09/11 06:10:11;;;;;;;10.00;8.98;;;24.20;68.60;;;;;;5052566;28;20221;-59
2023/09/11 06:12:36;;;;;;;9.02;8.30;;;24.20;68.50;;;;;;5053714;28;20225;-58
2023/09/11 06:15:04;;;;;;;9.82;9.02;;;24.20;68.50;;;;;;5053449;28;20180;-56
2023/09/11 06:17:29;;;;;;;9.70;8.75;;;24.20;68.60;;;;;;5052871;28;20175;-59
2023/09/11 06:19:55;;;;;;;9.27;8.50;;;24.20;68.50;;;;;;5053685;28;20179;-58
2023/09/11 06:22:21;;;;;;;8.60;7.90;;;24.20;68.50;;;;;;5053315;28;20538;-59
2023/09/11 06:24:46;;;;;;;9.43;8.63;;;24.20;68.60;;;;;;5052614;28;20175;-58
2023/09/11 06:27:13;;;;;;;9.30;8.45;;;24.20;68.60;;;;;;5053362;28;20606;-58
2023/09/11 06:29:39;;;;;;;9.27;8.48;;;24.20;68.60;;;;;;5053258;28;20572;-56
2023/09/11 06:32:05;;;;;;;9.13;8.40;;;24.20;68.60;;;;;;5052265;28;20183;-53
2023/09/11 06:34:30;;;;;;;8.82;8.23;;;24.20;68.60;;;;;;5053093;28;20217;-57
2023/09/11 06:36:56;;;;;;;9.63;8.70;;;24.20;68.60;;;;;;5053201;28;20175;-58
2023/09/11 06:39:22;;;;;;;9.32;8.52;;;24.20;68.60;;;;;;5052108;28;20214;-59
2023/09/11 06:41:48;;;;;;;9.32;8.52;;;24.20;68.60;;;;;;5053293;28;20171;-60
2023/09/11 06:44:13;;;;;;;8.55;7.90;;;24.20;68.60;;;;;;5051970;28;20175;-61
2023/09/11 06:46:39;;;;;;;8.80;8.05;;;24.30;68.60;;;;;;5052578;28;20171;-60
2023/09/11 06:49:04;;;;;;;9.55;8.52;;;24.30;68.70;;;;;;5053151;28;20175;-59
2023/09/11 06:51:30;;;;;;;9.00;8.10;;;24.30;69.00;;;;;;5053147;28;20202;-60
2023/09/11 06:53:55;;;;;;;10.23;9.15;;;24.30;69.00;;;;;;5052071;28;20210;-60
2023/09/11 06:56:21;;;;;;;9.57;8.68;;;24.30;68.90;;;;;;5052874;28;20178;-59
2023/09/11 06:58:46;;;;;;;10.40;9.15;;;24.30;69.10;;;;;;5052775;28;20685;-59
2023/09/11 07:01:13;;;;;;;9.35;8.27;;;24.30;69.10;;;;;;5051786;28;20233;-60
2023/09/11 07:03:38;;;;;;;9.52;8.73;;;24.30;69.10;;;;;;5052821;28;20183;-59
2023/09/11 07:06:04;;;;;;;9.82;8.88;;;24.30;69.10;;;;;;5052807;28;20258;-60
2023/09/11 07:08:30;;;;;;;11.52;8.35;;;24.40;69.20;;;;;;5051793;28;20174;-60
2023/09/11 07:10:55;;;;;;;9.65;8.85;;;24.40;69.40;;;;;;5052965;28;20203;-60
2023/09/11 07:13:21;;;;;;;10.95;8.60;;;24.30;69.20;;;;;;5052134;28;20527;-59
2023/09/11 07:15:57;;;;;;;9.60;8.70;;;24.40;69.30;;;;;;5052641;28;20175;-59
2023/09/11 07:18:22;;;;;;;9.73;8.30;;;24.40;69.20;;;;;;5052500;28;20217;-59
2023/09/11 07:20:49;;;;;;;11.57;8.70;;;24.40;70.00;;;;;;5051940;28;20175;-59
2023/09/11 07:23:15;;;;;;;10.80;8.90;;;24.40;69.10;;;;;;5052549;28;20186;-60
2023/09/11 07:25:41;;;;;;;10.88;9.82;;;24.40;69.10;;;;;;5052691;28;20555;-59
2023/09/11 07:28:07;;;;;;;9.93;8.93;;;24.40;69.10;;;;;;5051841;28;20175;-59
2023/09/11 07:30:32;;;;;;;11.80;9.48;;;24.40;70.00;;;;;;5052578;28;20185;-59
2023/09/11 07:32:58;;;;;;;9.55;8.38;;;24.40;69.10;;;;;;5052481;28;20178;-59
2023/09/11 07:35:24;;;;;;;10.27;9.30;;;24.40;69.00;;;;;;5051628;28;20175;-59
2023/09/11 07:37:49;;;;;;;9.82;8.88;;;24.40;68.90;;;;;;5052681;28;20576;-59
2023/09/11 07:40:15;;;;;;;9.80;8.90;;;24.40;68.90;;;;;;5052279;28;20183;-60
2023/09/11 07:42:40;;;;;;;10.38;8.18;;;24.40;68.90;;;;;;5051915;28;20517;-59
2023/09/11 07:45:06;;;;;;;9.65;8.75;;;24.40;68.80;;;;;;5051809;28;20175;-59
2023/09/11 07:47:32;;;;;;;9.35;8.35;;;24.40;68.80;;;;;;5052215;28;20189;-59
2023/09/11 07:49:58;;;;;;;9.48;8.18;;;24.40;68.80;;;;;;5051381;28;20182;-58
2023/09/11 07:52:23;;;;;;;9.57;8.60;;;24.50;68.90;;;;;;5052395;28;20270;-58
2023/09/11 07:54:49;;;;;;;9.27;8.35;;;24.50;69.70;;;;;;5052915;28;20623;-58
2023/09/11 07:57:14;;;;;;;10.25;9.20;;;24.50;68.80;;;;;;5055252;28;20547;-58
2023/09/11 07:59:40;;;;;;;9.55;8.70;;;24.50;68.80;;;;;;5055684;28;20671;-58
2023/09/11 08:02:05;;;;;;;9.43;8.50;;;24.50;69.60;;;;;;5055976;28;20171;-58
2023/09/11 08:04:32;;;;;;;9.93;8.98;;;24.50;69.60;;;;;;5055307;28;20202;-59
2023/09/11 08:06:58;;;;;;;8.80;8.10;;;24.50;68.70;;;;;;5055916;28;20175;-59
2023/09/11 08:09:23;;;;;;;8.88;8.07;;;24.50;68.60;;;;;;5056107;28;20179;-59
2023/09/11 08:11:49;;;;;;;8.43;7.53;;;24.50;68.60;;;;;;5055096;28;20175;-59
2023/09/11 08:14:16;;;;;;;9.50;8.27;;;24.50;68.60;;;;;;5055570;28;20546;-59
2023/09/11 08:16:42;;;;;;;9.38;8.40;;;24.50;68.50;;;;;;5055191;28;20183;-59
2023/09/11 08:19:08;;;;;;;8.63;7.78;;;24.60;68.60;;;;;;5055522;28;20206;-59
2023/09/11 08:21:34;;;;;;;8.90;8.20;;;24.60;68.70;;;;;;5055676;28;20186;-59
2023/09/11 08:24:00;;;;;;;8.73;7.93;;;24.60;68.60;;;;;;5054959;28;20179;-59
2023/09/11 08:26:25;;;;;;;8.60;7.80;;;24.50;68.50;;;;;;5055946;28;20183;-59
2023/09/11 08:28:51;;;;;;;8.70;7.90;;;24.60;68.60;;;;;;5055810;28;20182;-58
2023/09/11 08:31:16;;;;;;;9.52;8.35;;;24.60;68.70;;;;;;5054642;28;20167;-59
2023/09/11 08:33:42;;;;;;;8.45;7.75;;;24.60;68.50;;;;;;5055531;28;20179;-60
2023/09/11 08:36:09;;;;;;;9.32;8.43;;;24.60;69.40;;;;;;5055207;28;20650;-60
2023/09/11 08:38:35;;;;;;;8.85;8.07;;;24.60;68.50;;;;;;5053641;28;20580;-60
2023/09/11 08:41:01;;;;;;;8.68;7.78;;;24.60;68.50;;;;;;5055503;28;20179;-60
2023/09/11 08:43:27;;;;;;;8.43;7.72;;;24.60;68.50;;;;;;5054160;28;20672;-60
2023/09/11 08:45:53;;;;;;;9.05;8.10;;;24.60;69.30;;;;;;5054761;28;20199;-60
2023/09/11 08:48:19;;;;;;;8.80;7.90;;;24.60;69.30;;;;;;5053856;28;20183;-59
2023/09/11 08:50:50;;;;;;;8.00;7.25;;;24.60;68.40;;;;;;5053995;28;20255;-59
2023/09/11 08:53:17;;;;;;;8.18;7.47;;;24.70;68.50;;;;;;5054385;28;20231;-60
2023/09/11 08:55:42;;;;;;;9.02;8.23;;;24.70;68.40;;;;;;5055176;28;20179;-59
2023/09/11 08:58:10;;;;;;;8.77;7.75;;;24.70;68.40;;;;;;5054877;28;20707;-59
2023/09/11 09:00:36;;;;;;;8.90;7.97;;;24.70;68.40;;;;;;5052909;28;20229;-60
2023/09/11 09:03:02;;;;;;;8.05;7.25;;;24.70;68.40;;;;;;5053435;28;20183;-59
2023/09/11 09:05:27;;;;;;;8.52;7.82;;;24.70;68.40;;;;;;5053839;28;20172;-60
2023/09/11 09:07:53;;;;;;;8.43;7.70;;;24.70;68.40;;;;;;5051975;28;20203;-60
2023/09/11 09:10:18;;;;;;;8.88;8.05;;;24.70;69.20;;;;;;5053421;28;20178;-60
2023/09/11 09:12:44;;;;;;;8.60;7.90;;;24.70;68.30;;;;;;5054859;28;20171;-60
2023/09/11 09:15:10;;;;;;;8.50;7.47;;;24.80;68.40;;;;;;5053904;28;20218;-59
2023/09/11 09:17:36;;;;;;;8.60;7.97;;;24.80;68.40;;;;;;5053335;28;20202;-60
2023/09/11 09:20:03;;;;;;;9.07;7.68;;;24.80;68.40;;;;;;5053886;28;20509;-59
2023/09/11 09:22:29;;;;;;;9.32;8.00;;;24.80;68.40;;;;;;5054666;28;20179;-59
2023/09/11 09:24:54;;;;;;;8.50;7.68;;;24.80;68.40;;;;;;5055119;28;20224;-59
2023/09/11 09:27:21;;;;;;;8.60;7.85;;;24.80;68.50;;;;;;5053543;28;20256;-59
2023/09/11 09:29:48;;;;;;;8.63;7.93;;;24.80;68.40;;;;;;5054449;28;20179;-59
2023/09/11 09:32:14;;;;;;;8.85;7.97;;;24.80;68.30;;;;;;5053989;28;20183;-59
2023/09/11 09:35:02;;;;;;;8.25;7.45;;;24.80;68.30;;;;;;5053848;28;20181;-59
2023/09/11 09:37:28;;;;;;;8.35;7.55;;;24.80;68.40;;;;;;5054055;28;20183;-60
2023/09/11 09:39:54;;;;;;;8.30;7.53;;;24.80;68.50;;;;;;5053118;28;20191;-60
2023/09/11 09:42:20;;;;;;;8.68;7.97;;;24.80;68.40;;;;;;5052191;28;20250;-60
2023/09/11 09:44:48;;;;;;;8.73;7.90;;;24.90;68.50;;;;;;5052903;28;20237;-60
2023/09/11 09:47:16;;;;;;;8.20;7.40;;;24.90;68.50;;;;;;5054035;28;20194;-60
2023/09/11 09:49:52;;;;;;;8.18;7.38;;;24.90;68.90;;;;;;5053575;28;20172;-60
2023/09/11 09:52:18;;;;;;;9.40;7.47;;;24.90;68.50;;;;;;5053858;28;20540;-59
2023/09/11 09:54:47;;;;;;;8.45;7.75;;;24.90;68.50;;;;;;5054170;28;20179;-59
2023/09/11 09:57:14;;;;;;;8.13;7.32;;;24.90;68.40;;;;;;5052821;28;20179;-59
2023/09/11 09:59:41;;;;;;;8.70;7.80;;;24.90;68.40;;;;;;5053801;28;20296;-59
2023/09/11 10:02:08;;;;;;;8.60;7.80;;;25.00;68.40;;;;;;5053642;28;20179;-59
2023/09/11 10:04:34;;;;;;;9.48;8.57;;;25.00;68.30;;;;;;5052177;28;20554;-60
2023/09/11 10:06:59;;;;;;;8.77;7.93;;;25.00;68.20;;;;;;5052433;28;20171;-60
2023/09/11 10:09:25;;;;;;;7.40;6.80;;;25.00;68.20;;;;;;5051680;28;20175;-59
2023/09/11 10:11:50;;;;;;;8.57;7.75;;;25.00;68.20;;;;;;5053765;28;20182;-60
2023/09/11 10:14:16;;;;;;;8.35;7.65;;;25.00;68.20;;;;;;5053594;28;20179;-61
2023/09/11 10:16:41;;;;;;;9.25;7.47;;;25.10;68.40;;;;;;5051862;28;20171;-61
2023/09/11 10:19:07;;;;;;;10.70;8.20;;;25.10;68.60;;;;;;5051710;28;20297;-61
2023/09/11 10:21:34;;;;;;;8.80;7.50;;;25.20;68.30;;;;;;5053372;28;20171;-63
2023/09/11 10:23:59;;;;;;;8.02;7.43;;;25.20;68.30;;;;;;5052584;28;20183;-60
2023/09/11 10:26:49;;;;;;;8.07;7.22;;;25.10;68.20;;;;;;5053121;28;20179;-60
2023/09/11 10:29:54;;;;;;;10.43;7.72;;;25.20;68.40;;;;;;5053170;28;20179;-60
2023/09/11 10:32:26;;;;;;;9.63;7.45;;;25.20;68.50;;;;;;5049077;28;20257;-61
2023/09/11 10:34:51;;;;;;;8.55;7.45;;;25.30;69.00;;;;;;5053411;28;20254;-59
2023/09/11 10:37:19;;;;;;;9.15;7.00;;;25.30;69.30;;;;;;5051924;28;20744;-60
2023/09/11 10:39:44;;;;;;;9.98;7.57;;;25.30;68.80;;;;;;5051758;28;20685;-60
2023/09/11 10:42:10;;;;;;;8.27;7.05;;;25.30;68.80;;;;;;5052871;28;20229;-60
2023/09/11 10:44:36;;;;;;;7.75;6.95;;;25.30;68.70;;;;;;5051162;28;20171;-60
2023/09/11 10:47:03;;;;;;;7.22;6.60;;;25.30;68.80;;;;;;5051752;28;20167;-59
2023/09/11 10:49:29;;;;;;;9.48;7.07;;;25.30;68.60;;;;;;5060953;28;20642;-59
2023/09/11 10:51:55;;;;;;;7.95;7.25;;;25.30;68.60;;;;;;5064340;28;20229;-59
2023/09/11 10:54:21;;;;;;;7.70;6.90;;;25.30;68.60;;;;;;5034653;28;20171;-60
2023/09/11 10:56:48;;;;;;;8.50;7.07;;;25.30;68.50;;;;;;5064364;28;20181;-59
2023/09/11 10:59:14;;;;;;;7.95;7.00;;;25.30;68.60;;;;;;5050013;28;20627;-60
2023/09/11 11:01:40;;;;;;;8.05;7.32;;;25.30;68.50;;;;;;5052529;28;20199;-59
2023/09/11 11:04:06;;;;;;;9.50;7.68;;;25.40;68.50;;;;;;5051191;28;20224;-59
2023/09/11 11:06:32;;;;;;;7.75;6.82;;;25.20;68.40;;;;;;5052030;28;20206;-59
2023/09/11 11:08:58;;;;;;;7.68;6.97;;;25.40;68.40;;;;;;5051362;28;20179;-60
2023/09/11 11:11:29;;;;;;;7.85;7.10;;;25.40;68.30;;;;;;5052495;28;20176;-60
2023/09/11 11:14:18;;;;;;;8.35;7.43;;;25.40;68.30;;;;;;5052101;28;20187;-59
2023/09/11 11:16:54;;;;;;;7.35;6.80;;;25.40;69.20;;;;;;5052489;28;20622;-59
2023/09/11 11:19:27;;;;;;;7.53;6.90;;;25.40;68.30;;;;;;5052092;28;20583;-59
2023/09/11 11:21:52;;;;;;;7.35;6.65;;;25.40;68.20;;;;;;5058854;28;20166;-59
2023/09/11 11:24:18;;;;;;;7.38;6.68;;;25.40;68.20;;;;;;5072222;28;20260;-59
2023/09/11 11:26:44;;;;;;;7.35;6.75;;;25.40;68.20;;;;;;5070463;28;20174;-60
2023/09/11 11:29:09;;;;;;;7.45;6.75;;;25.40;68.20;;;;;;5071282;28;20181;-59
2023/09/11 11:31:35;;;;;;;7.57;6.80;;;25.40;68.20;;;;;;5075828;28;20179;-59
2023/09/11 11:34:00;;;;;;;7.03;6.43;;;25.40;68.10;;;;;;5070274;28;20193;-59
2023/09/11 11:36:27;;;;;;;7.90;6.90;;;25.50;68.10;;;;;;5056459;28;20568;-60
2023/09/11 11:38:54;;;;;;;8.48;6.78;;;25.50;68.10;;;;;;5056625;28;20211;-59
2023/09/11 11:41:19;;;;;;;8.43;7.03;;;25.50;68.00;;;;;;5055329;28;20175;-60
2023/09/11 11:43:45;;;;;;;7.78;6.90;;;25.50;68.20;;;;;;5056660;28;20626;-61
2023/09/11 11:46:12;;;;;;;10.23;7.15;;;25.50;68.20;;;;;;5054914;28;20558;-61
2023/09/11 11:48:39;;;;;;;8.27;7.05;;;25.50;68.30;;;;;;5055742;28;20195;-60
2023/09/11 11:51:05;;;;;;;12.35;7.80;;;25.50;68.20;;;;;;5055007;28;20248;-59
2023/09/11 11:53:31;;;;;;;9.25;7.40;;;25.50;68.30;;;;;;5056089;28;20634;-60
2023/09/11 11:55:57;;;;;;;10.90;7.38;;;25.50;68.40;;;;;;5062266;28;20175;-59
2023/09/11 11:58:23;;;;;;;7.78;6.97;;;25.60;68.60;;;;;;5075981;28;20256;-60
2023/09/11 12:00:58;;;;;;;8.60;7.80;;;25.50;68.40;;;;;;5075811;28;20711;-60
2023/09/11 12:03:24;;;;;;;9.73;7.30;;;25.60;68.50;;;;;;5075151;28;20184;-60
2023/09/11 12:05:50;;;;;;;10.65;7.38;;;25.60;68.50;;;;;;5075902;28;20184;-61
2023/09/11 12:08:15;;;;;;;9.13;6.82;;;25.60;68.50;;;;;;5075734;28;20202;-60
2023/09/11 12:10:45;;;;;;;9.27;7.55;;;25.60;68.50;;;;;;5074155;28;20178;-60
2023/09/11 12:13:15;;;;;;;9.52;7.22;;;25.60;68.60;;;;;;5076022;28;20228;-60
2023/09/11 12:15:41;;;;;;;11.63;7.32;;;25.60;68.60;;;;;;5074889;28;20182;-59
2023/09/11 12:18:06;;;;;;;12.50;7.45;;;25.60;68.60;;;;;;5073549;28;20608;-60
2023/09/11 12:20:32;;;;;;;11.73;7.50;;;25.60;68.30;;;;;;5074568;28;20440;-61
2023/09/11 12:23:00;;;;;;;8.52;7.22;;;25.60;68.20;;;;;;5074840;28;20174;-60
2023/09/11 12:25:25;;;;;;;9.02;7.30;;;25.60;68.20;;;;;;5075852;28;20182;-60
2023/09/11 12:27:51;;;;;;;8.40;7.20;;;25.60;68.30;;;;;;5075690;28;20186;-59
2023/09/11 12:30:16;;;;;;;7.78;6.80;;;25.60;68.30;;;;;;5073466;28;20205;-60
2023/09/11 12:32:44;;;;;;;8.50;7.55;;;25.60;68.50;;;;;;5075505;28;20188;-60
2023/09/11 12:35:09;;;;;;;8.25;7.45;;;25.60;68.30;;;;;;5075444;28;20202;-60
2023/09/11 12:37:37;;;;;;;7.47;6.70;;;25.70;68.40;;;;;;5074537;28;20630;-61
2023/09/11 12:40:08;;;;;;;7.90;7.00;;;25.60;68.30;;;;;;5074271;28;20200;-59
2023/09/11 12:42:37;;;;;;;7.80;7.10;;;25.70;68.50;;;;;;5075311;28;20174;-62